Aérodrome :
LOGIN :

S'inscrire | Disclaimer

   EN    FR    IT 

 










Légende :    VFR   VFR Marginal   IFR   IFR Intensif   IFR Très Intensif
Visi : 
Plafond : 
>= 8 km
>= 3000ft
5 à 8 km
1000 à 3000 ft
1500m à 5 km
500 à 1000 ft
800 à 1500m
200 à 500 ft
< 800m
< 200 ft
Symboles :   Orages  Brouillard  Fortes neiges  Fortes précipitations  Vent > 20 kt
SIGMETs :   Divers  Orages  Givrage  Turbulence  Onde Orograph.  Cendres Volcan.






- Altitude de l'aérodrome : 446 ft
- Code IATA : VNE


LFRV - Vannes-Meucon

DERNIER METAR :
  • 102030Z AUTO 19012KT 160V230 2000 -RA BR VV/// 11/11 Q1013

METARs EXPIRÉS :
  • 102000Z AUTO 20010KT 170V230 2600 -RA BR OVC002 11/11 Q1014
  • 101930Z AUTO 19012KT 160V250 2900 +DZ BR VV/// 11/11 Q1014
  • 101900Z AUTO 20010KT 170V240 2300 -DZ BR VV/// 11/11 Q1015
  • 101830Z AUTO 20011KT 170V240 2900 -RA BR OVC002 11/11 Q1015
  • 101800Z AUTO 20011KT 160V240 3600 -RADZ BR OVC002 11/10 Q1016

TAF N/A



MET'MAP, la Météo Aéronautique d'un coup d'oeil ! - Copyright ORBIFLY Décembre 2007 - Disclaimer

ORBIFLY MET'MAP TEAM :

Programmation & Développement : Alexandra Zaïnal
Sur une idée originale de : Baudouin d'Aumeries
Assistance à la programmation : Marc-Olivier Méhu
Soutien technique & logistique : Manuel Goepfert

Contact : metmap@orbifly.com




SOURCES & CREDITS :

   NOAA